createdAt,value
2018-04-11T13:21:39.018Z,18.98
2018-04-11T13:24:05.719Z,29.42
2018-04-11T13:26:32.529Z,26.08
2018-04-11T13:28:59.231Z,28.77
2018-04-11T13:31:25.937Z,28.83
2018-04-11T13:33:52.644Z,25.63
2018-04-11T13:36:19.485Z,34.17
2018-04-11T13:38:46.225Z,33.97
2018-04-11T13:41:12.982Z,35.57
2018-04-11T13:43:39.677Z,34.20
2018-04-11T13:46:06.374Z,33.30
2018-04-11T13:48:33.098Z,29.77
2018-04-11T13:50:59.786Z,33.37
2018-04-11T13:53:26.463Z,29.93
2018-04-11T13:55:53.151Z,29.90
2018-04-11T13:58:19.850Z,27.03
2018-04-11T14:00:46.542Z,26.33
2018-04-11T14:03:13.221Z,25.13
2018-04-11T14:05:39.914Z,22.53
2018-04-11T14:08:06.618Z,23.67
2018-04-11T14:10:33.305Z,24.20
2018-04-11T14:13:00.010Z,20.80
2018-04-11T14:15:26.714Z,20.43
2018-04-11T14:17:53.415Z,19.40
2018-04-11T14:20:20.199Z,19.20
2018-04-11T14:22:46.900Z,16.20
2018-04-11T14:25:13.589Z,17.57
2018-04-11T14:27:40.285Z,17.27
2018-04-11T14:31:38.135Z,15.33
2018-04-11T14:34:04.839Z,13.87
2018-04-11T14:36:31.580Z,13.77
2018-04-11T14:38:58.498Z,14.37
2018-04-11T14:41:25.180Z,13.97
2018-04-11T14:43:51.878Z,15.63
2018-04-11T14:46:18.761Z,16.73
2018-04-11T14:48:45.441Z,13.10
2018-04-11T14:51:12.205Z,16.00
2018-04-11T14:53:38.892Z,13.33
2018-04-11T14:56:05.710Z,13.13
2018-04-11T14:58:32.416Z,16.10
2018-04-11T15:00:59.113Z,14.77
2018-04-11T15:03:25.818Z,12.50
2018-04-11T15:05:53.426Z,20.03
2018-04-11T15:08:20.117Z,15.13
2018-04-11T15:10:46.815Z,16.30
2018-04-11T15:13:13.493Z,15.10
2018-04-11T15:15:40.217Z,15.67
2018-04-11T15:18:06.901Z,17.10
2018-04-11T15:20:33.815Z,14.07
2018-04-11T15:23:00.497Z,15.77
2018-04-11T15:25:27.194Z,16.23
2018-04-11T15:27:53.891Z,16.33
2018-04-11T15:30:20.601Z,20.27
2018-04-11T15:32:48.098Z,15.10
2018-04-11T15:35:14.791Z,14.50
2018-04-11T15:37:41.597Z,13.90
2018-04-11T15:40:08.454Z,16.13
2018-04-11T15:42:35.153Z,13.93
2018-04-11T15:45:01.848Z,12.57
2018-04-11T15:47:28.608Z,12.17
2018-04-11T15:49:55.308Z,14.03
2018-04-11T15:52:21.994Z,12.93
2018-04-11T15:54:48.719Z,13.63
2018-04-11T15:57:15.413Z,12.33
2018-04-11T15:59:42.162Z,13.00
2018-04-11T16:02:08.859Z,13.83
2018-04-11T16:04:35.537Z,13.30
2018-04-11T16:07:02.300Z,13.03
2018-04-11T16:09:28.949Z,10.57
2018-04-11T16:11:55.760Z,12.77
2018-04-11T16:14:22.446Z,10.57
2018-04-11T16:16:49.143Z,10.13
2018-04-11T16:19:15.933Z,10.53
2018-04-11T16:21:42.559Z,9.60
2018-04-11T16:24:09.475Z,11.23
2018-04-11T16:26:36.169Z,9.53
2018-04-11T16:29:03.180Z,9.83
2018-04-11T16:31:29.874Z,9.50
2018-04-11T16:33:57.369Z,9.30
2018-04-11T16:36:24.056Z,10.07
2018-04-11T16:38:50.747Z,8.70
2018-04-11T16:41:17.434Z,8.77
2018-04-11T16:43:44.277Z,11.07
2018-04-11T16:46:10.978Z,8.90
2018-04-11T16:48:37.655Z,9.17
2018-04-11T16:51:04.353Z,11.37
2018-04-11T16:53:31.052Z,10.83
2018-04-11T16:55:57.741Z,8.87
2018-04-11T16:58:24.446Z,9.90
2018-04-11T17:00:51.141Z,8.37
2018-04-11T17:03:17.839Z,8.83
2018-04-11T17:05:44.536Z,9.43
2018-04-11T17:08:11.300Z,11.23
2018-04-11T17:10:38.118Z,8.20
2018-04-11T17:13:04.964Z,7.97
2018-04-11T17:15:31.666Z,8.97
2018-04-11T17:17:58.381Z,8.63
2018-04-11T17:20:31.070Z,8.80
2018-04-11T17:23:03.711Z,11.03
2018-04-11T17:25:36.310Z,9.03
2018-04-11T17:28:24.518Z,13.37
2018-04-11T17:31:12.472Z,10.17
2018-04-11T17:33:39.193Z,8.10
2018-04-11T17:36:05.956Z,8.70
2018-04-11T17:38:32.807Z,8.70
2018-04-11T17:40:59.576Z,11.47
2018-04-11T17:43:26.325Z,8.40
2018-04-11T17:45:53.056Z,9.17
2018-04-11T17:48:19.791Z,9.60
2018-04-11T17:50:46.502Z,9.83
2018-04-11T17:53:13.224Z,9.53
2018-04-11T17:55:39.941Z,9.40
2018-04-11T17:58:06.728Z,10.53
2018-04-11T18:00:33.431Z,10.23
2018-04-11T18:03:00.148Z,12.23
2018-04-11T18:05:26.864Z,9.80
2018-04-11T18:07:53.753Z,11.00
2018-04-11T18:10:20.459Z,11.60
2018-04-11T18:12:47.207Z,11.33
2018-04-11T18:15:13.942Z,10.97
2018-04-11T18:17:41.504Z,10.43
2018-04-11T18:20:08.235Z,10.57
2018-04-11T18:22:34.954Z,9.97
2018-04-11T18:25:01.693Z,11.00
2018-04-11T18:27:28.504Z,9.97
2018-04-11T18:29:55.263Z,9.60
2018-04-11T18:32:22.103Z,9.67
2018-04-11T18:34:48.812Z,9.70
2018-04-11T18:37:16.242Z,10.13
2018-04-11T18:39:43.590Z,10.87
2018-04-11T18:42:10.300Z,9.80
2018-04-11T18:44:37.055Z,10.93
2018-04-11T18:47:03.804Z,10.50
2018-04-11T18:49:30.556Z,9.40
2018-04-11T18:51:57.746Z,8.63
2018-04-11T18:54:24.973Z,9.30
2018-04-11T18:56:52.729Z,9.30
2018-04-11T18:59:19.477Z,9.00
2018-04-11T19:01:46.294Z,8.57
2018-04-11T19:04:13.628Z,8.20
2018-04-11T19:06:40.379Z,7.57
2018-04-11T19:09:07.278Z,8.53
2018-04-11T19:11:34.013Z,10.33
2018-04-11T19:14:00.759Z,8.43
2018-04-11T19:16:29.024Z,9.30
2018-04-11T19:18:55.767Z,7.23
2018-04-11T19:21:22.548Z,8.20
2018-04-11T19:23:50.198Z,9.53
2018-04-11T19:26:17.020Z,9.47
2018-04-11T19:28:44.715Z,9.13
2018-04-11T19:31:11.733Z,8.43
2018-04-11T19:33:39.981Z,7.13
2018-04-11T19:36:06.744Z,9.60
2018-04-11T19:38:34.310Z,7.37
2018-04-11T19:41:01.737Z,8.53
2018-04-11T19:43:28.614Z,7.57
2018-04-11T19:45:55.355Z,8.87
2018-04-11T19:48:22.092Z,8.20
2018-04-11T19:50:49.403Z,7.87
2018-04-11T19:53:16.384Z,8.27
2018-04-11T19:55:43.502Z,8.90
2018-04-11T19:58:10.258Z,7.57
2018-04-11T20:00:37.046Z,8.63
2018-04-11T20:03:03.829Z,8.03
2018-04-11T20:05:31.210Z,7.20
2018-04-11T20:07:57.971Z,8.27
2018-04-11T20:10:25.626Z,8.00
2018-04-11T20:12:52.381Z,10.23
2018-04-11T20:15:19.173Z,26.80
2018-04-11T20:17:45.919Z,15.23
2018-04-11T20:20:13.920Z,14.27
2018-04-11T20:22:40.661Z,12.83
2018-04-11T20:25:08.721Z,10.90
2018-04-11T20:27:35.682Z,10.10
2018-04-11T20:30:02.446Z,13.35
2018-04-11T20:32:30.119Z,12.63
2018-04-11T20:34:57.199Z,11.63
2018-04-11T20:37:24.251Z,13.13
2018-04-11T20:39:51.739Z,10.53
2018-04-11T20:42:18.687Z,10.10
2018-04-11T20:44:45.410Z,11.67
2018-04-11T20:47:12.636Z,12.70
2018-04-11T20:49:39.742Z,10.83
2018-04-11T20:52:06.499Z,10.97
2018-04-11T20:54:33.200Z,9.80
2018-04-11T20:56:59.915Z,11.48
2018-04-11T20:59:26.640Z,11.87
2018-04-11T21:01:53.352Z,9.40
2018-04-11T21:04:20.119Z,12.90
2018-04-11T21:06:46.836Z,11.77
2018-04-11T21:09:13.586Z,12.05
2018-04-11T21:11:40.439Z,11.40
2018-04-11T21:14:07.158Z,12.27
2018-04-11T21:16:33.938Z,8.93
2018-04-11T21:19:00.667Z,10.75
2018-04-11T21:21:27.372Z,9.23
2018-04-11T21:23:54.074Z,7.63
2018-04-11T21:26:20.813Z,8.27
2018-04-11T21:28:47.494Z,10.33
2018-04-11T21:31:14.189Z,8.03
2018-04-11T21:33:40.868Z,8.67
2018-04-11T21:36:07.566Z,9.57
2018-04-11T21:38:34.254Z,9.63
2018-04-11T21:41:00.956Z,12.37
2018-04-11T21:43:27.865Z,8.37
2018-04-11T21:45:54.694Z,8.60
2018-04-11T21:48:21.544Z,11.93
2018-04-11T21:50:48.374Z,10.10
2018-04-11T21:53:15.067Z,11.37
2018-04-11T21:55:41.748Z,9.40
2018-04-11T21:58:08.498Z,13.33
2018-04-11T22:00:35.331Z,8.77
2018-04-11T22:03:02.820Z,9.17
2018-04-11T22:05:29.645Z,10.73
2018-04-11T22:07:56.389Z,10.10
2018-04-11T22:10:23.092Z,9.40
2018-04-11T22:12:49.767Z,9.83
2018-04-11T22:15:16.781Z,9.80
2018-04-11T22:17:43.647Z,9.33
2018-04-11T22:20:10.598Z,11.67
2018-04-11T22:22:37.281Z,10.97
2018-04-11T22:25:04.040Z,8.43
2018-04-11T22:27:30.734Z,11.53
2018-04-11T22:29:57.405Z,8.93
2018-04-11T22:32:24.087Z,10.00
2018-04-11T22:34:50.934Z,8.20
2018-04-11T22:37:17.617Z,10.90
2018-04-11T22:39:44.410Z,10.20
2018-04-11T22:42:11.097Z,9.40
2018-04-11T22:44:37.781Z,7.87
2018-04-11T22:47:04.523Z,8.63
2018-04-11T22:49:31.191Z,9.73
2018-04-11T22:51:58.000Z,8.00
2018-04-11T22:54:24.699Z,8.87
2018-04-11T22:56:51.390Z,9.13
2018-04-11T22:59:18.234Z,10.37
2018-04-11T23:01:45.534Z,8.73
2018-04-11T23:04:12.417Z,9.07
2018-04-11T23:06:39.095Z,9.50
2018-04-11T23:09:05.784Z,8.73
2018-04-11T23:11:32.471Z,8.43
2018-04-11T23:13:59.196Z,8.73
2018-04-11T23:16:26.977Z,9.57
2018-04-11T23:18:53.863Z,7.53
2018-04-11T23:21:20.557Z,7.80
2018-04-11T23:23:47.353Z,8.83
2018-04-11T23:26:14.109Z,8.70
2018-04-11T23:28:41.601Z,7.50
2018-04-11T23:31:08.274Z,9.13
2018-04-11T23:33:34.940Z,8.60
2018-04-11T23:36:01.610Z,8.27
2018-04-11T23:38:28.473Z,6.90
2018-04-11T23:40:55.821Z,7.23
2018-04-11T23:43:22.493Z,8.63
2018-04-11T23:45:49.168Z,8.67
2018-04-11T23:48:15.882Z,7.03
2018-04-11T23:50:42.737Z,9.13
2018-04-11T23:53:09.429Z,7.10
2018-04-11T23:55:36.293Z,8.33
2018-04-11T23:58:02.977Z,7.83
